sensor_id;sensor_type;location;lat;lon;timestamp;P1;durP1;ratioP1;P2;durP2;ratioP2
73675;SDS011;61975;48.660;10.164;2022-08-05T00:01:13;8.35;;;6.60;;
73675;SDS011;61975;48.660;10.164;2022-08-05T00:03:40;8.88;;;6.30;;
73675;SDS011;61975;48.660;10.164;2022-08-05T00:06:06;8.63;;;6.07;;
73675;SDS011;61975;48.660;10.164;2022-08-05T00:08:32;7.50;;;6.40;;
73675;SDS011;61975;48.660;10.164;2022-08-05T00:10:58;9.57;;;6.63;;
73675;SDS011;61975;48.660;10.164;2022-08-05T00:13:25;8.18;;;6.57;;
73675;SDS011;61975;48.660;10.164;2022-08-05T00:15:51;9.63;;;6.57;;
73675;SDS011;61975;48.660;10.164;2022-08-05T00:18:16;7.43;;;6.22;;
73675;SDS011;61975;48.660;10.164;2022-08-05T00:20:41;9.67;;;6.30;;
73675;SDS011;61975;48.660;10.164;2022-08-05T00:23:07;9.57;;;6.40;;
73675;SDS011;61975;48.660;10.164;2022-08-05T00:25:32;8.17;;;6.33;;
73675;SDS011;61975;48.660;10.164;2022-08-05T00:27:58;10.55;;;6.63;;
73675;SDS011;61975;48.660;10.164;2022-08-05T00:30:24;8.73;;;6.50;;
73675;SDS011;61975;48.660;10.164;2022-08-05T00:32:49;8.32;;;6.30;;
73675;SDS011;61975;48.660;10.164;2022-08-05T00:35:15;11.00;;;6.20;;
73675;SDS011;61975;48.660;10.164;2022-08-05T00:37:40;8.10;;;6.70;;
73675;SDS011;61975;48.660;10.164;2022-08-05T00:40:06;9.13;;;6.53;;
73675;SDS011;61975;48.660;10.164;2022-08-05T00:42:33;9.50;;;6.47;;
73675;SDS011;61975;48.660;10.164;2022-08-05T00:45:04;8.32;;;6.32;;
73675;SDS011;61975;48.660;10.164;2022-08-05T00:47:31;9.25;;;6.63;;
73675;SDS011;61975;48.660;10.164;2022-08-05T00:49:57;8.63;;;6.40;;
73675;SDS011;61975;48.660;10.164;2022-08-05T00:52:22;8.53;;;6.30;;
73675;SDS011;61975;48.660;10.164;2022-08-05T00:54:48;7.27;;;6.20;;
73675;SDS011;61975;48.660;10.164;2022-08-05T00:57:13;9.13;;;6.35;;
73675;SDS011;61975;48.660;10.164;2022-08-05T00:59:39;8.40;;;6.07;;
73675;SDS011;61975;48.660;10.164;2022-08-05T01:02:04;7.72;;;6.07;;
73675;SDS011;61975;48.660;10.164;2022-08-05T01:04:30;7.10;;;6.40;;
73675;SDS011;61975;48.660;10.164;2022-08-05T01:06:55;8.40;;;6.50;;
73675;SDS011;61975;48.660;10.164;2022-08-05T01:09:21;11.23;;;6.47;;
73675;SDS011;61975;48.660;10.164;2022-08-05T01:11:50;7.73;;;6.00;;
73675;SDS011;61975;48.660;10.164;2022-08-05T01:17:02;7.38;;;6.43;;
73675;SDS011;61975;48.660;10.164;2022-08-05T01:30:55;8.23;;;6.70;;
73675;SDS011;61975;48.660;10.164;2022-08-05T01:33:31;8.60;;;6.70;;
73675;SDS011;61975;48.660;10.164;2022-08-05T01:35:59;7.77;;;6.47;;
73675;SDS011;61975;48.660;10.164;2022-08-05T01:38:28;9.77;;;6.55;;
73675;SDS011;61975;48.660;10.164;2022-08-05T01:40:58;7.53;;;6.35;;
73675;SDS011;61975;48.660;10.164;2022-08-05T01:43:25;9.18;;;6.93;;
73675;SDS011;61975;48.660;10.164;2022-08-05T01:45:53;9.80;;;6.75;;
73675;SDS011;61975;48.660;10.164;2022-08-05T01:48:20;9.53;;;6.70;;
73675;SDS011;61975;48.660;10.164;2022-08-05T01:50:47;8.23;;;6.57;;
73675;SDS011;61975;48.660;10.164;2022-08-05T01:53:15;9.35;;;7.00;;
73675;SDS011;61975;48.660;10.164;2022-08-05T01:55:43;8.45;;;6.43;;
73675;SDS011;61975;48.660;10.164;2022-08-05T01:58:10;10.40;;;6.80;;
73675;SDS011;61975;48.660;10.164;2022-08-05T02:00:40;9.20;;;6.90;;
73675;SDS011;61975;48.660;10.164;2022-08-05T02:03:10;9.80;;;7.20;;
73675;SDS011;61975;48.660;10.164;2022-08-05T02:05:40;9.10;;;6.60;;
73675;SDS011;61975;48.660;10.164;2022-08-05T02:08:09;10.95;;;7.10;;
73675;SDS011;61975;48.660;10.164;2022-08-05T02:10:44;9.95;;;6.80;;
73675;SDS011;61975;48.660;10.164;2022-08-05T02:13:24;8.53;;;6.90;;
73675;SDS011;61975;48.660;10.164;2022-08-05T02:16:13;8.93;;;6.70;;
73675;SDS011;61975;48.660;10.164;2022-08-05T02:18:49;11.02;;;7.10;;
73675;SDS011;61975;48.660;10.164;2022-08-05T02:21:20;8.23;;;6.40;;
73675;SDS011;61975;48.660;10.164;2022-08-05T02:23:52;8.32;;;6.63;;
73675;SDS011;61975;48.660;10.164;2022-08-05T02:26:27;7.53;;;6.67;;
73675;SDS011;61975;48.660;10.164;2022-08-05T02:29:01;7.95;;;6.75;;
73675;SDS011;61975;48.660;10.164;2022-08-05T02:31:28;7.30;;;6.50;;
73675;SDS011;61975;48.660;10.164;2022-08-05T02:33:58;8.38;;;6.70;;
73675;SDS011;61975;48.660;10.164;2022-08-05T02:36:29;8.05;;;6.68;;
73675;SDS011;61975;48.660;10.164;2022-08-05T02:38:58;8.70;;;7.03;;
73675;SDS011;61975;48.660;10.164;2022-08-05T02:41:25;12.73;;;6.78;;
73675;SDS011;61975;48.660;10.164;2022-08-05T02:43:51;9.38;;;6.80;;
73675;SDS011;61975;48.660;10.164;2022-08-05T02:46:20;9.00;;;6.68;;
73675;SDS011;61975;48.660;10.164;2022-08-05T02:48:46;8.95;;;6.93;;
73675;SDS011;61975;48.660;10.164;2022-08-05T02:51:13;9.47;;;6.90;;
73675;SDS011;61975;48.660;10.164;2022-08-05T02:53:40;7.60;;;6.80;;
73675;SDS011;61975;48.660;10.164;2022-08-05T02:56:08;7.68;;;6.70;;
73675;SDS011;61975;48.660;10.164;2022-08-05T02:58:38;8.38;;;6.63;;
73675;SDS011;61975;48.660;10.164;2022-08-05T03:01:05;9.02;;;6.90;;
73675;SDS011;61975;48.660;10.164;2022-08-05T03:03:33;9.13;;;6.90;;
73675;SDS011;61975;48.660;10.164;2022-08-05T03:06:03;9.02;;;6.93;;
73675;SDS011;61975;48.660;10.164;2022-08-05T03:08:29;7.78;;;6.70;;
73675;SDS011;61975;48.660;10.164;2022-08-05T03:10:56;8.30;;;6.57;;
73675;SDS011;61975;48.660;10.164;2022-08-05T03:13:21;7.53;;;6.50;;
73675;SDS011;61975;48.660;10.164;2022-08-05T03:15:47;9.10;;;6.90;;
73675;SDS011;61975;48.660;10.164;2022-08-05T03:18:12;8.18;;;6.93;;
73675;SDS011;61975;48.660;10.164;2022-08-05T03:20:38;7.70;;;6.87;;
73675;SDS011;61975;48.660;10.164;2022-08-05T03:23:07;9.27;;;6.53;;
73675;SDS011;61975;48.660;10.164;2022-08-05T03:25:35;8.00;;;6.80;;
73675;SDS011;61975;48.660;10.164;2022-08-05T03:28:02;8.80;;;6.90;;
73675;SDS011;61975;48.660;10.164;2022-08-05T03:30:31;10.05;;;7.30;;
73675;SDS011;61975;48.660;10.164;2022-08-05T03:33:01;8.43;;;6.72;;
73675;SDS011;61975;48.660;10.164;2022-08-05T03:35:28;9.40;;;6.90;;
73675;SDS011;61975;48.660;10.164;2022-08-05T03:37:56;9.47;;;6.93;;
73675;SDS011;61975;48.660;10.164;2022-08-05T03:40:22;8.50;;;7.18;;
73675;SDS011;61975;48.660;10.164;2022-08-05T03:42:48;9.05;;;6.90;;
73675;SDS011;61975;48.660;10.164;2022-08-05T03:45:14;9.27;;;6.97;;
73675;SDS011;61975;48.660;10.164;2022-08-05T03:47:39;9.40;;;6.88;;
73675;SDS011;61975;48.660;10.164;2022-08-05T03:50:05;9.20;;;6.70;;
73675;SDS011;61975;48.660;10.164;2022-08-05T03:52:32;10.05;;;7.05;;
73675;SDS011;61975;48.660;10.164;2022-08-05T03:55:07;11.23;;;7.20;;
73675;SDS011;61975;48.660;10.164;2022-08-05T03:57:39;9.63;;;6.77;;
73675;SDS011;61975;48.660;10.164;2022-08-05T04:00:06;7.90;;;6.70;;
73675;SDS011;61975;48.660;10.164;2022-08-05T04:02:34;8.68;;;7.03;;
73675;SDS011;61975;48.660;10.164;2022-08-05T04:05:02;8.82;;;6.80;;
73675;SDS011;61975;48.660;10.164;2022-08-05T04:07:29;9.35;;;7.20;;
73675;SDS011;61975;48.660;10.164;2022-08-05T04:09:55;8.17;;;6.90;;
73675;SDS011;61975;48.660;10.164;2022-08-05T04:12:22;8.85;;;6.68;;
73675;SDS011;61975;48.660;10.164;2022-08-05T04:14:48;8.02;;;7.22;;
73675;SDS011;61975;48.660;10.164;2022-08-05T04:17:14;8.87;;;6.83;;
73675;SDS011;61975;48.660;10.164;2022-08-05T04:19:41;9.52;;;6.97;;
73675;SDS011;61975;48.660;10.164;2022-08-05T04:22:08;8.25;;;6.68;;
73675;SDS011;61975;48.660;10.164;2022-08-05T04:24:34;9.38;;;6.70;;
73675;SDS011;61975;48.660;10.164;2022-08-05T04:27:01;10.52;;;7.40;;
73675;SDS011;61975;48.660;10.164;2022-08-05T04:29:26;11.17;;;7.00;;
73675;SDS011;61975;48.660;10.164;2022-08-05T04:31:51;9.60;;;7.43;;
73675;SDS011;61975;48.660;10.164;2022-08-05T04:34:17;8.97;;;6.73;;
73675;SDS011;61975;48.660;10.164;2022-08-05T04:36:42;10.23;;;6.73;;
73675;SDS011;61975;48.660;10.164;2022-08-05T04:39:08;9.90;;;6.75;;
73675;SDS011;61975;48.660;10.164;2022-08-05T04:41:33;10.13;;;7.10;;
73675;SDS011;61975;48.660;10.164;2022-08-05T04:43:58;10.20;;;6.57;;
73675;SDS011;61975;48.660;10.164;2022-08-05T04:46:24;8.53;;;6.20;;
73675;SDS011;61975;48.660;10.164;2022-08-05T04:48:49;8.50;;;7.00;;
73675;SDS011;61975;48.660;10.164;2022-08-05T04:51:14;9.35;;;6.80;;
73675;SDS011;61975;48.660;10.164;2022-08-05T04:53:41;9.47;;;6.87;;
73675;SDS011;61975;48.660;10.164;2022-08-05T04:56:07;8.20;;;6.72;;
73675;SDS011;61975;48.660;10.164;2022-08-05T04:58:33;9.80;;;6.87;;
73675;SDS011;61975;48.660;10.164;2022-08-05T05:00:58;9.23;;;6.72;;
73675;SDS011;61975;48.660;10.164;2022-08-05T05:03:24;11.73;;;6.53;;
73675;SDS011;61975;48.660;10.164;2022-08-05T05:05:49;12.27;;;6.97;;
73675;SDS011;61975;48.660;10.164;2022-08-05T05:08:14;8.93;;;7.20;;
73675;SDS011;61975;48.660;10.164;2022-08-05T05:10:41;9.90;;;7.15;;
73675;SDS011;61975;48.660;10.164;2022-08-05T05:13:12;9.37;;;7.40;;
73675;SDS011;61975;48.660;10.164;2022-08-05T05:15:39;8.80;;;6.75;;
73675;SDS011;61975;48.660;10.164;2022-08-05T05:18:06;9.35;;;6.97;;
73675;SDS011;61975;48.660;10.164;2022-08-05T05:20:33;13.32;;;7.60;;
73675;SDS011;61975;48.660;10.164;2022-08-05T05:22:59;12.10;;;7.25;;
73675;SDS011;61975;48.660;10.164;2022-08-05T05:25:28;9.60;;;6.60;;
73675;SDS011;61975;48.660;10.164;2022-08-05T05:27:55;9.60;;;6.90;;
73675;SDS011;61975;48.660;10.164;2022-08-05T05:30:21;9.77;;;7.07;;
73675;SDS011;61975;48.660;10.164;2022-08-05T05:32:47;9.10;;;7.17;;
73675;SDS011;61975;48.660;10.164;2022-08-05T05:35:13;10.70;;;6.70;;
73675;SDS011;61975;48.660;10.164;2022-08-05T05:40:18;9.25;;;6.35;;
73675;SDS011;61975;48.660;10.164;2022-08-05T05:42:47;9.43;;;7.00;;
73675;SDS011;61975;48.660;10.164;2022-08-05T05:45:14;8.25;;;6.30;;
73675;SDS011;61975;48.660;10.164;2022-08-05T05:47:40;8.07;;;6.13;;
73675;SDS011;61975;48.660;10.164;2022-08-05T05:50:09;9.00;;;6.63;;
73675;SDS011;61975;48.660;10.164;2022-08-05T05:52:36;9.07;;;6.05;;
73675;SDS011;61975;48.660;10.164;2022-08-05T05:55:05;8.00;;;5.90;;
73675;SDS011;61975;48.660;10.164;2022-08-05T05:57:35;7.57;;;6.00;;
73675;SDS011;61975;48.660;10.164;2022-08-05T06:00:05;7.75;;;5.68;;
73675;SDS011;61975;48.660;10.164;2022-08-05T06:02:36;10.15;;;5.82;;
73675;SDS011;61975;48.660;10.164;2022-08-05T06:05:01;7.70;;;5.53;;
73675;SDS011;61975;48.660;10.164;2022-08-05T06:07:27;9.00;;;5.53;;
73675;SDS011;61975;48.660;10.164;2022-08-05T06:09:53;9.13;;;5.03;;
73675;SDS011;61975;48.660;10.164;2022-08-05T06:12:18;8.43;;;5.00;;
73675;SDS011;61975;48.660;10.164;2022-08-05T06:14:43;7.17;;;4.70;;
73675;SDS011;61975;48.660;10.164;2022-08-05T06:17:12;7.03;;;5.17;;
73675;SDS011;61975;48.660;10.164;2022-08-05T06:19:37;8.77;;;5.10;;
73675;SDS011;61975;48.660;10.164;2022-08-05T06:22:03;9.65;;;5.03;;
73675;SDS011;61975;48.660;10.164;2022-08-05T06:24:30;10.18;;;4.90;;
73675;SDS011;61975;48.660;10.164;2022-08-05T06:26:56;7.80;;;5.30;;
73675;SDS011;61975;48.660;10.164;2022-08-05T06:29:22;6.22;;;5.10;;
73675;SDS011;61975;48.660;10.164;2022-08-05T06:31:47;8.20;;;4.80;;
73675;SDS011;61975;48.660;10.164;2022-08-05T06:34:12;8.83;;;5.20;;
73675;SDS011;61975;48.660;10.164;2022-08-05T06:36:38;9.13;;;4.73;;
73675;SDS011;61975;48.660;10.164;2022-08-05T06:39:04;8.48;;;5.07;;
73675;SDS011;61975;48.660;10.164;2022-08-05T06:41:29;8.60;;;5.10;;
73675;SDS011;61975;48.660;10.164;2022-08-05T06:43:55;9.40;;;4.88;;
73675;SDS011;61975;48.660;10.164;2022-08-05T06:46:20;10.13;;;4.93;;
73675;SDS011;61975;48.660;10.164;2022-08-05T06:48:46;7.00;;;4.73;;
73675;SDS011;61975;48.660;10.164;2022-08-05T06:51:11;8.30;;;4.82;;
73675;SDS011;61975;48.660;10.164;2022-08-05T06:53:37;6.87;;;4.97;;
73675;SDS011;61975;48.660;10.164;2022-08-05T06:56:02;9.80;;;4.90;;
73675;SDS011;61975;48.660;10.164;2022-08-05T06:58:29;9.18;;;4.90;;
73675;SDS011;61975;48.660;10.164;2022-08-05T07:01:03;9.07;;;5.20;;
73675;SDS011;61975;48.660;10.164;2022-08-05T07:03:30;8.50;;;5.30;;
73675;SDS011;61975;48.660;10.164;2022-08-05T07:05:56;7.32;;;5.18;;
73675;SDS011;61975;48.660;10.164;2022-08-05T07:08:22;7.10;;;5.07;;
73675;SDS011;61975;48.660;10.164;2022-08-05T07:10:48;8.27;;;5.20;;
73675;SDS011;61975;48.660;10.164;2022-08-05T07:13:14;8.48;;;5.53;;
73675;SDS011;61975;48.660;10.164;2022-08-05T07:15:58;9.88;;;5.45;;
73675;SDS011;61975;48.660;10.164;2022-08-05T07:18:42;7.00;;;5.00;;
73675;SDS011;61975;48.660;10.164;2022-08-05T07:21:08;8.27;;;5.30;;
73675;SDS011;61975;48.660;10.164;2022-08-05T07:23:33;7.47;;;4.90;;
73675;SDS011;61975;48.660;10.164;2022-08-05T07:25:59;7.90;;;4.57;;
73675;SDS011;61975;48.660;10.164;2022-08-05T07:28:25;6.55;;;4.20;;
73675;SDS011;61975;48.660;10.164;2022-08-05T07:30:51;8.20;;;3.90;;
73675;SDS011;61975;48.660;10.164;2022-08-05T07:33:16;7.97;;;3.57;;
73675;SDS011;61975;48.660;10.164;2022-08-05T07:35:42;5.57;;;3.60;;
73675;SDS011;61975;48.660;10.164;2022-08-05T07:38:08;5.93;;;3.42;;
73675;SDS011;61975;48.660;10.164;2022-08-05T07:40:34;5.30;;;3.37;;
73675;SDS011;61975;48.660;10.164;2022-08-05T07:42:59;5.57;;;3.33;;
73675;SDS011;61975;48.660;10.164;2022-08-05T07:45:24;6.70;;;3.50;;
73675;SDS011;61975;48.660;10.164;2022-08-05T07:47:50;6.13;;;3.73;;
73675;SDS011;61975;48.660;10.164;2022-08-05T07:50:17;6.03;;;4.10;;
73675;SDS011;61975;48.660;10.164;2022-08-05T07:52:42;5.80;;;3.80;;
73675;SDS011;61975;48.660;10.164;2022-08-05T07:55:08;7.80;;;3.83;;
73675;SDS011;61975;48.660;10.164;2022-08-05T07:57:34;5.70;;;3.37;;
73675;SDS011;61975;48.660;10.164;2022-08-05T08:00:00;4.88;;;3.38;;
73675;SDS011;61975;48.660;10.164;2022-08-05T08:02:27;6.53;;;3.60;;
73675;SDS011;61975;48.660;10.164;2022-08-05T08:04:53;6.03;;;3.70;;
73675;SDS011;61975;48.660;10.164;2022-08-05T08:07:19;5.83;;;4.00;;
73675;SDS011;61975;48.660;10.164;2022-08-05T08:09:46;6.80;;;4.20;;
73675;SDS011;61975;48.660;10.164;2022-08-05T08:12:12;5.93;;;3.97;;
73675;SDS011;61975;48.660;10.164;2022-08-05T08:14:38;7.95;;;4.00;;
73675;SDS011;61975;48.660;10.164;2022-08-05T08:17:05;7.05;;;4.32;;
73675;SDS011;61975;48.660;10.164;2022-08-05T08:19:35;8.63;;;4.17;;
73675;SDS011;61975;48.660;10.164;2022-08-05T08:22:07;6.22;;;4.22;;
73675;SDS011;61975;48.660;10.164;2022-08-05T08:24:33;6.20;;;4.18;;
73675;SDS011;61975;48.660;10.164;2022-08-05T08:26:59;7.57;;;4.00;;
73675;SDS011;61975;48.660;10.164;2022-08-05T08:29:25;5.75;;;4.13;;
73675;SDS011;61975;48.660;10.164;2022-08-05T08:31:50;5.83;;;4.10;;
73675;SDS011;61975;48.660;10.164;2022-08-05T08:34:16;6.83;;;3.70;;
73675;SDS011;61975;48.660;10.164;2022-08-05T08:36:43;4.60;;;3.40;;
73675;SDS011;61975;48.660;10.164;2022-08-05T08:39:08;5.37;;;3.57;;
73675;SDS011;61975;48.660;10.164;2022-08-05T08:41:34;5.63;;;3.72;;
73675;SDS011;61975;48.660;10.164;2022-08-05T08:44:03;6.90;;;3.38;;
73675;SDS011;61975;48.660;10.164;2022-08-05T08:46:31;4.40;;;3.10;;
73675;SDS011;61975;48.660;10.164;2022-08-05T08:48:57;7.45;;;3.03;;
73675;SDS011;61975;48.660;10.164;2022-08-05T08:51:23;5.10;;;3.25;;
73675;SDS011;61975;48.660;10.164;2022-08-05T08:53:52;4.90;;;3.10;;
73675;SDS011;61975;48.660;10.164;2022-08-05T08:56:18;5.15;;;2.90;;
73675;SDS011;61975;48.660;10.164;2022-08-05T08:58:45;5.18;;;3.10;;
73675;SDS011;61975;48.660;10.164;2022-08-05T09:01:11;4.60;;;2.90;;
73675;SDS011;61975;48.660;10.164;2022-08-05T09:03:37;4.00;;;2.90;;
73675;SDS011;61975;48.660;10.164;2022-08-05T09:06:04;4.17;;;3.00;;
73675;SDS011;61975;48.660;10.164;2022-08-05T09:08:30;6.35;;;3.10;;
73675;SDS011;61975;48.660;10.164;2022-08-05T09:10:55;4.57;;;2.63;;
73675;SDS011;61975;48.660;10.164;2022-08-05T09:13:21;4.97;;;2.80;;
73675;SDS011;61975;48.660;10.164;2022-08-05T09:15:46;3.90;;;2.93;;
73675;SDS011;61975;48.660;10.164;2022-08-05T09:18:12;4.27;;;2.70;;
73675;SDS011;61975;48.660;10.164;2022-08-05T09:20:38;3.67;;;2.58;;
73675;SDS011;61975;48.660;10.164;2022-08-05T09:23:09;4.50;;;2.70;;
73675;SDS011;61975;48.660;10.164;2022-08-05T09:25:36;4.03;;;2.47;;
73675;SDS011;61975;48.660;10.164;2022-08-05T09:28:16;4.25;;;2.50;;
73675;SDS011;61975;48.660;10.164;2022-08-05T09:36:14;4.82;;;2.65;;
73675;SDS011;61975;48.660;10.164;2022-08-05T09:39:13;5.03;;;2.40;;
73675;SDS011;61975;48.660;10.164;2022-08-05T09:41:33;3.90;;;2.72;;
73675;SDS011;61975;48.660;10.164;2022-08-05T09:43:59;4.60;;;2.90;;
73675;SDS011;61975;48.660;10.164;2022-08-05T09:46:26;4.00;;;2.70;;
73675;SDS011;61975;48.660;10.164;2022-08-05T09:48:53;4.63;;;2.63;;
73675;SDS011;61975;48.660;10.164;2022-08-05T09:51:33;5.90;;;3.00;;
73675;SDS011;61975;48.660;10.164;2022-08-05T09:54:00;5.07;;;2.90;;
73675;SDS011;61975;48.660;10.164;2022-08-05T09:56:27;5.80;;;2.60;;
73675;SDS011;61975;48.660;10.164;2022-08-05T10:01:28;4.10;;;2.70;;
73675;SDS011;61975;48.660;10.164;2022-08-05T10:04:02;4.38;;;2.70;;
73675;SDS011;61975;48.660;10.164;2022-08-05T10:06:29;4.45;;;2.67;;
73675;SDS011;61975;48.660;10.164;2022-08-05T10:09:09;4.63;;;2.70;;
73675;SDS011;61975;48.660;10.164;2022-08-05T10:11:39;5.03;;;2.53;;
73675;SDS011;61975;48.660;10.164;2022-08-05T10:14:27;4.23;;;2.53;;
73675;SDS011;61975;48.660;10.164;2022-08-05T10:16:55;3.40;;;2.40;;
73675;SDS011;61975;48.660;10.164;2022-08-05T10:19:35;3.72;;;2.58;;
73675;SDS011;61975;48.660;10.164;2022-08-05T10:22:01;3.85;;;2.55;;
73675;SDS011;61975;48.660;10.164;2022-08-05T10:24:27;4.83;;;2.67;;
73675;SDS011;61975;48.660;10.164;2022-08-05T10:26:55;4.10;;;2.50;;
73675;SDS011;61975;48.660;10.164;2022-08-05T10:29:20;3.77;;;2.50;;
73675;SDS011;61975;48.660;10.164;2022-08-05T10:31:46;4.32;;;2.50;;
73675;SDS011;61975;48.660;10.164;2022-08-05T10:34:12;5.60;;;2.67;;
73675;SDS011;61975;48.660;10.164;2022-08-05T10:36:38;5.65;;;2.65;;
73675;SDS011;61975;48.660;10.164;2022-08-05T10:39:27;4.10;;;2.63;;
73675;SDS011;61975;48.660;10.164;2022-08-05T10:42:01;4.00;;;2.55;;
73675;SDS011;61975;48.660;10.164;2022-08-05T10:44:34;3.80;;;2.60;;
73675;SDS011;61975;48.660;10.164;2022-08-05T10:47:08;5.38;;;2.60;;
73675;SDS011;61975;48.660;10.164;2022-08-05T10:49:40;4.15;;;2.53;;
73675;SDS011;61975;48.660;10.164;2022-08-05T10:52:43;4.93;;;2.87;;
73675;SDS011;61975;48.660;10.164;2022-08-05T10:55:11;4.18;;;2.78;;
73675;SDS011;61975;48.660;10.164;2022-08-05T10:57:38;4.72;;;2.70;;
73675;SDS011;61975;48.660;10.164;2022-08-05T11:00:18;4.30;;;2.50;;
73675;SDS011;61975;48.660;10.164;2022-08-05T11:05:35;4.87;;;2.40;;
73675;SDS011;61975;48.660;10.164;2022-08-05T11:08:02;5.53;;;2.67;;
73675;SDS011;61975;48.660;10.164;2022-08-05T11:10:34;3.75;;;2.47;;
73675;SDS011;61975;48.660;10.164;2022-08-05T11:13:03;5.35;;;2.90;;
73675;SDS011;61975;48.660;10.164;2022-08-05T11:20:48;5.60;;;2.78;;
73675;SDS011;61975;48.660;10.164;2022-08-05T11:23:40;4.15;;;2.90;;
73675;SDS011;61975;48.660;10.164;2022-08-05T11:28:41;5.30;;;2.70;;
73675;SDS011;61975;48.660;10.164;2022-08-05T11:33:35;3.80;;;2.70;;
73675;SDS011;61975;48.660;10.164;2022-08-05T11:41:06;4.20;;;2.70;;
73675;SDS011;61975;48.660;10.164;2022-08-05T11:43:32;5.97;;;2.90;;
73675;SDS011;61975;48.660;10.164;2022-08-05T11:45:58;5.22;;;2.65;;
73675;SDS011;61975;48.660;10.164;2022-08-05T11:48:25;4.00;;;2.90;;
73675;SDS011;61975;48.660;10.164;2022-08-05T11:50:51;4.10;;;2.80;;
73675;SDS011;61975;48.660;10.164;2022-08-05T11:53:17;3.97;;;2.90;;
73675;SDS011;61975;48.660;10.164;2022-08-05T11:58:26;3.97;;;2.80;;
73675;SDS011;61975;48.660;10.164;2022-08-05T12:01:03;4.70;;;3.15;;
73675;SDS011;61975;48.660;10.164;2022-08-05T12:03:38;4.50;;;2.97;;
73675;SDS011;61975;48.660;10.164;2022-08-05T12:06:16;3.92;;;2.90;;
73675;SDS011;61975;48.660;10.164;2022-08-05T12:08:49;4.65;;;2.78;;
73675;SDS011;61975;48.660;10.164;2022-08-05T12:11:23;4.22;;;3.00;;
73675;SDS011;61975;48.660;10.164;2022-08-05T12:16:23;4.50;;;3.10;;
73675;SDS011;61975;48.660;10.164;2022-08-05T12:18:50;4.25;;;2.83;;
73675;SDS011;61975;48.660;10.164;2022-08-05T12:21:16;4.72;;;3.10;;
73675;SDS011;61975;48.660;10.164;2022-08-05T12:23:56;4.75;;;3.00;;
73675;SDS011;61975;48.660;10.164;2022-08-05T12:26:23;4.00;;;3.10;;
73675;SDS011;61975;48.660;10.164;2022-08-05T12:28:48;4.20;;;3.00;;
73675;SDS011;61975;48.660;10.164;2022-08-05T12:31:14;5.37;;;3.00;;
73675;SDS011;61975;48.660;10.164;2022-08-05T12:33:41;3.92;;;3.05;;
73675;SDS011;61975;48.660;10.164;2022-08-05T12:36:08;5.35;;;2.70;;
73675;SDS011;61975;48.660;10.164;2022-08-05T12:38:35;3.83;;;2.67;;
73675;SDS011;61975;48.660;10.164;2022-08-05T12:41:05;5.63;;;3.05;;
73675;SDS011;61975;48.660;10.164;2022-08-05T12:43:32;4.97;;;3.17;;
73675;SDS011;61975;48.660;10.164;2022-08-05T12:45:57;5.85;;;3.30;;
73675;SDS011;61975;48.660;10.164;2022-08-05T12:48:22;5.10;;;3.13;;
73675;SDS011;61975;48.660;10.164;2022-08-05T12:53:40;5.22;;;3.20;;
73675;SDS011;61975;48.660;10.164;2022-08-05T12:56:17;3.63;;;2.88;;
73675;SDS011;61975;48.660;10.164;2022-08-05T12:58:45;3.80;;;3.00;;
73675;SDS011;61975;48.660;10.164;2022-08-05T13:01:30;4.73;;;2.70;;
73675;SDS011;61975;48.660;10.164;2022-08-05T13:03:56;5.45;;;3.10;;
73675;SDS011;61975;48.660;10.164;2022-08-05T13:06:22;7.30;;;3.20;;
73675;SDS011;61975;48.660;10.164;2022-08-05T13:08:51;4.60;;;3.25;;
73675;SDS011;61975;48.660;10.164;2022-08-05T13:11:16;6.53;;;3.20;;
73675;SDS011;61975;48.660;10.164;2022-08-05T13:13:42;5.90;;;3.17;;
73675;SDS011;61975;48.660;10.164;2022-08-05T13:16:11;4.00;;;2.93;;
73675;SDS011;61975;48.660;10.164;2022-08-05T13:18:38;4.47;;;2.90;;
73675;SDS011;61975;48.660;10.164;2022-08-05T13:21:03;4.00;;;3.20;;
73675;SDS011;61975;48.660;10.164;2022-08-05T13:23:29;4.03;;;2.83;;
73675;SDS011;61975;48.660;10.164;2022-08-05T13:25:54;4.60;;;3.27;;
73675;SDS011;61975;48.660;10.164;2022-08-05T13:28:20;5.35;;;3.08;;
73675;SDS011;61975;48.660;10.164;2022-08-05T13:30:45;4.80;;;2.93;;
73675;SDS011;61975;48.660;10.164;2022-08-05T13:33:11;5.15;;;3.05;;
73675;SDS011;61975;48.660;10.164;2022-08-05T13:35:36;4.87;;;2.90;;
73675;SDS011;61975;48.660;10.164;2022-08-05T13:38:02;6.67;;;3.27;;
73675;SDS011;61975;48.660;10.164;2022-08-05T13:40:27;4.20;;;3.27;;
73675;SDS011;61975;48.660;10.164;2022-08-05T13:42:52;5.83;;;3.30;;
73675;SDS011;61975;48.660;10.164;2022-08-05T13:45:18;6.13;;;3.30;;
73675;SDS011;61975;48.660;10.164;2022-08-05T13:47:44;4.87;;;3.20;;
73675;SDS011;61975;48.660;10.164;2022-08-05T13:50:09;4.20;;;3.00;;
73675;SDS011;61975;48.660;10.164;2022-08-05T13:52:35;7.63;;;2.90;;
73675;SDS011;61975;48.660;10.164;2022-08-05T13:55:00;4.73;;;3.60;;
73675;SDS011;61975;48.660;10.164;2022-08-05T13:57:26;4.95;;;3.35;;
73675;SDS011;61975;48.660;10.164;2022-08-05T13:59:51;4.07;;;3.10;;
73675;SDS011;61975;48.660;10.164;2022-08-05T14:02:17;4.03;;;3.23;;
73675;SDS011;61975;48.660;10.164;2022-08-05T14:04:43;4.75;;;3.30;;
73675;SDS011;61975;48.660;10.164;2022-08-05T14:07:29;3.90;;;3.00;;
73675;SDS011;61975;48.660;10.164;2022-08-05T14:09:57;4.70;;;3.00;;
73675;SDS011;61975;48.660;10.164;2022-08-05T14:12:23;4.80;;;3.33;;
73675;SDS011;61975;48.660;10.164;2022-08-05T14:14:49;5.55;;;3.22;;
73675;SDS011;61975;48.660;10.164;2022-08-05T14:17:14;5.53;;;3.40;;
73675;SDS011;61975;48.660;10.164;2022-08-05T14:19:40;4.50;;;3.30;;
73675;SDS011;61975;48.660;10.164;2022-08-05T14:22:06;4.10;;;3.03;;
73675;SDS011;61975;48.660;10.164;2022-08-05T14:24:32;5.05;;;3.30;;
73675;SDS011;61975;48.660;10.164;2022-08-05T14:26:57;4.30;;;3.30;;
73675;SDS011;61975;48.660;10.164;2022-08-05T14:29:23;5.00;;;3.08;;
73675;SDS011;61975;48.660;10.164;2022-08-05T14:31:48;3.83;;;3.13;;
73675;SDS011;61975;48.660;10.164;2022-08-05T14:34:14;5.23;;;3.10;;
73675;SDS011;61975;48.660;10.164;2022-08-05T14:36:39;4.17;;;3.10;;
73675;SDS011;61975;48.660;10.164;2022-08-05T14:39:05;5.53;;;3.50;;
73675;SDS011;61975;48.660;10.164;2022-08-05T14:41:30;4.53;;;3.00;;
73675;SDS011;61975;48.660;10.164;2022-08-05T14:43:56;4.57;;;3.13;;
73675;SDS011;61975;48.660;10.164;2022-08-05T14:46:22;6.37;;;3.37;;
73675;SDS011;61975;48.660;10.164;2022-08-05T14:48:49;5.15;;;3.30;;
73675;SDS011;61975;48.660;10.164;2022-08-05T14:51:14;5.23;;;3.20;;
73675;SDS011;61975;48.660;10.164;2022-08-05T14:53:40;5.10;;;3.40;;
73675;SDS011;61975;48.660;10.164;2022-08-05T14:56:05;4.67;;;3.10;;
73675;SDS011;61975;48.660;10.164;2022-08-05T14:58:31;5.95;;;3.20;;
73675;SDS011;61975;48.660;10.164;2022-08-05T15:00:56;3.97;;;3.20;;
73675;SDS011;61975;48.660;10.164;2022-08-05T15:03:22;4.50;;;3.60;;
73675;SDS011;61975;48.660;10.164;2022-08-05T15:05:47;4.55;;;3.25;;
73675;SDS011;61975;48.660;10.164;2022-08-05T15:08:13;4.50;;;3.27;;
73675;SDS011;61975;48.660;10.164;2022-08-05T15:10:38;4.20;;;3.30;;
73675;SDS011;61975;48.660;10.164;2022-08-05T15:13:07;4.20;;;3.33;;
73675;SDS011;61975;48.660;10.164;2022-08-05T15:15:32;4.50;;;3.30;;
73675;SDS011;61975;48.660;10.164;2022-08-05T15:17:58;6.30;;;3.60;;
73675;SDS011;61975;48.660;10.164;2022-08-05T15:20:23;4.43;;;3.33;;
73675;SDS011;61975;48.660;10.164;2022-08-05T15:22:49;4.33;;;3.30;;
73675;SDS011;61975;48.660;10.164;2022-08-05T15:25:14;5.28;;;3.50;;
73675;SDS011;61975;48.660;10.164;2022-08-05T15:27:40;5.50;;;3.37;;